Time;durP1;ratioP1;P1;durP2;ratioP2;P2;SDS_P1;SDS_P2;PMS_P1;PMS_P2;Temp;Humidity;BMP_temperature;BMP_pressure;BME280_temperature;BME280_humidity;BME280_pressure;Samples;Min_cycle;Max_cycle;Signal;HPM_P1;HPM_P2
2022/05/14 00:00:57;;;;;;;2.92;1.83;;;15.30;95.10;;;;;;5055239;28;20208;-70
2022/05/14 00:03:26;;;;;;;1.90;1.80;;;15.20;95.60;;;;;;5055120;28;20228;-70
2022/05/14 00:05:54;;;;;;;2.45;1.50;;;15.10;95.50;;;;;;5055281;28;20225;-70
2022/05/14 00:08:22;;;;;;;1.55;1.45;;;15.00;96.00;;;;;;5055296;28;20270;-70
2022/05/14 00:13:35;;;;;;;2.45;1.80;;;14.90;96.10;;;;;;5055316;28;20336;-70
2022/05/14 00:16:03;;;;;;;4.22;2.10;;;15.10;95.90;;;;;;5054919;28;20231;-69
2022/05/14 00:18:31;;;;;;;2.60;2.40;;;15.20;96.10;;;;;;5054928;28;20204;-70
2022/05/14 00:20:59;;;;;;;2.60;2.17;;;15.20;95.70;;;;;;5055207;28;20204;-70
2022/05/14 00:23:26;;;;;;;2.78;2.35;;;15.20;95.50;;;;;;5054769;28;20300;-69
2022/05/14 00:25:53;;;;;;;2.80;2.20;;;15.20;96.40;;;;;;5055092;28;20230;-70
2022/05/14 00:28:20;;;;;;;5.05;3.25;;;15.20;96.80;;;;;;5055087;28;20205;-69
2022/05/14 00:30:48;;;;;;;3.63;2.50;;;15.20;97.30;;;;;;5055203;28;20619;-69
2022/05/14 00:33:14;;;;;;;2.97;2.75;;;15.20;97.60;;;;;;5054215;28;20590;-70
2022/05/14 00:35:43;;;;;;;3.58;3.28;;;15.20;98.00;;;;;;5054661;28;20729;-69
2022/05/14 00:38:10;;;;;;;3.60;3.30;;;15.20;98.30;;;;;;5054929;28;20580;-70
2022/05/14 00:40:39;;;;;;;3.95;3.55;;;15.10;98.50;;;;;;5054832;28;20205;-70
2022/05/14 00:43:07;;;;;;;4.00;3.20;;;14.90;99.20;;;;;;5054442;28;20209;-70
2022/05/14 00:45:37;;;;;;;3.83;3.38;;;14.80;99.50;;;;;;5054647;28;20226;-69
2022/05/14 00:48:05;;;;;;;3.45;3.13;;;14.90;99.90;;;;;;5055415;28;20561;-70
2022/05/14 00:50:39;;;;;;;3.63;3.33;;;14.80;99.90;;;;;;5054726;28;20592;-70
2022/05/14 00:55:50;;;;;;;3.58;3.05;;;14.80;99.90;;;;;;5091179;27;20560;-68
2022/05/14 00:58:26;;;;;;;3.38;3.03;;;14.90;99.90;;;;;;5090948;28;20592;-69
2022/05/14 01:00:52;;;;;;;3.67;3.05;;;14.90;99.60;;;;;;5090938;28;20203;-69
2022/05/14 01:03:21;;;;;;;3.67;2.78;;;14.90;99.40;;;;;;5090833;28;20202;-69
2022/05/14 01:05:48;;;;;;;2.95;2.60;;;14.90;99.00;;;;;;5090733;28;20226;-68
2022/05/14 01:08:15;;;;;;;4.68;3.00;;;14.80;98.80;;;;;;5090949;28;20208;-68
2022/05/14 01:10:46;;;;;;;2.85;2.60;;;14.80;99.00;;;;;;5090847;28;20202;-68
2022/05/14 01:13:15;;;;;;;2.33;2.13;;;14.70;98.60;;;;;;5090709;28;20250;-68
2022/05/14 01:15:47;;;;;;;2.67;2.33;;;14.70;98.40;;;;;;5090749;28;20320;-68
2022/05/14 01:18:15;;;;;;;5.43;3.25;;;14.60;98.90;;;;;;5090789;28;20213;-68
2022/05/14 01:20:42;;;;;;;3.15;2.85;;;14.60;99.10;;;;;;5090643;28;20294;-68
2022/05/14 01:23:22;;;;;;;3.83;3.40;;;14.40;99.70;;;;;;5090319;28;20208;-69
2022/05/14 01:28:52;;;;;;;3.45;2.40;;;14.40;99.90;;;;;;5090553;28;20717;-68
2022/05/14 01:31:18;;;;;;;3.35;2.40;;;14.30;99.90;;;;;;5090490;28;20202;-68
2022/05/14 01:33:45;;;;;;;2.38;2.17;;;14.30;99.90;;;;;;5090036;28;20301;-68
2022/05/14 01:36:12;;;;;;;2.47;2.28;;;14.30;99.90;;;;;;5090415;28;20261;-68
2022/05/14 01:38:39;;;;;;;2.78;2.47;;;14.30;99.90;;;;;;5090388;28;20357;-68
2022/05/14 01:41:06;;;;;;;3.25;2.67;;;14.30;99.90;;;;;;5090192;28;20213;-68
2022/05/14 01:43:33;;;;;;;4.78;3.00;;;14.30;99.90;;;;;;5089877;28;20205;-69
2022/05/14 01:46:01;;;;;;;3.70;2.75;;;14.30;99.90;;;;;;5090158;28;20309;-69
2022/05/14 01:48:28;;;;;;;3.45;2.63;;;14.30;99.90;;;;;;5090189;28;20203;-68
2022/05/14 01:50:54;;;;;;;3.70;3.40;;;14.30;99.90;;;;;;5089941;28;20266;-68
2022/05/14 01:53:21;;;;;;;4.50;3.88;;;14.30;99.90;;;;;;5089695;28;20289;-68
2022/05/14 01:55:48;;;;;;;3.75;3.25;;;14.30;99.90;;;;;;5089830;28;20223;-68
2022/05/14 02:01:01;;;;;;;3.40;3.10;;;14.30;99.90;;;;;;5089992;28;20197;-68
2022/05/14 02:03:27;;;;;;;4.70;3.75;;;14.20;99.90;;;;;;5089761;28;20213;-69
2022/05/14 02:05:54;;;;;;;3.70;3.25;;;14.20;99.90;;;;;;5083157;28;20225;-70
2022/05/14 02:08:21;;;;;;;4.10;3.70;;;14.20;99.90;;;;;;5076255;28;20564;-70
2022/05/14 02:10:48;;;;;;;4.13;3.80;;;14.10;99.90;;;;;;5076257;28;20225;-70
2022/05/14 02:13:15;;;;;;;4.95;3.70;;;14.20;99.90;;;;;;5075894;28;20203;-69
2022/05/14 02:15:42;;;;;;;4.88;4.30;;;14.10;99.90;;;;;;5076160;28;20241;-69
2022/05/14 02:18:10;;;;;;;5.88;4.47;;;14.00;99.90;;;;;;5076170;28;20203;-70
2022/05/14 02:20:37;;;;;;;6.00;4.18;;;14.00;99.90;;;;;;5076361;28;20248;-69
2022/05/14 02:23:04;;;;;;;4.85;4.30;;;14.00;99.90;;;;;;5075898;28;20205;-70
2022/05/14 02:25:31;;;;;;;4.68;4.05;;;14.00;99.90;;;;;;5075755;28;20219;-69
2022/05/14 02:27:58;;;;;;;4.68;4.25;;;14.00;99.90;;;;;;5075991;28;20238;-69
2022/05/14 02:30:25;;;;;;;4.18;3.78;;;13.90;99.90;;;;;;5075691;28;20210;-69
2022/05/14 02:32:52;;;;;;;4.13;3.67;;;13.90;99.90;;;;;;5075658;28;20203;-69
2022/05/14 02:35:20;;;;;;;4.10;3.60;;;13.90;99.90;;;;;;5075592;28;20222;-69
2022/05/14 02:37:47;;;;;;;3.95;3.35;;;13.80;99.90;;;;;;5075860;28;20207;-69
2022/05/14 02:40:14;;;;;;;3.40;3.10;;;13.70;99.90;;;;;;5075659;28;20211;-69
2022/05/14 02:42:41;;;;;;;3.40;3.10;;;13.70;99.90;;;;;;5075582;28;20214;-69
2022/05/14 02:45:09;;;;;;;4.68;3.20;;;13.60;99.90;;;;;;5075403;28;20222;-70
2022/05/14 02:47:36;;;;;;;3.50;3.20;;;13.60;99.90;;;;;;5075465;28;20290;-69
2022/05/14 02:50:04;;;;;;;4.20;3.50;;;13.50;99.90;;;;;;5075605;28;20207;-69
2022/05/14 02:52:33;;;;;;;3.80;3.38;;;13.50;99.90;;;;;;5075263;28;20225;-69
2022/05/14 02:54:59;;;;;;;3.47;3.17;;;13.50;99.90;;;;;;5075078;28;20230;-70
2022/05/14 02:57:27;;;;;;;5.20;3.08;;;13.40;99.90;;;;;;5075436;28;20237;-69
2022/05/14 02:59:53;;;;;;;5.75;3.40;;;13.40;99.90;;;;;;5075190;28;20207;-69
2022/05/14 03:02:20;;;;;;;3.45;3.15;;;13.40;99.90;;;;;;5075153;28;20298;-69
2022/05/14 03:04:48;;;;;;;3.60;3.30;;;13.40;99.90;;;;;;5075229;28;20229;-69
2022/05/14 03:07:16;;;;;;;4.22;3.50;;;13.30;99.90;;;;;;5075212;28;20639;-69
2022/05/14 03:09:44;;;;;;;4.43;4.05;;;13.30;99.90;;;;;;5075181;28;20207;-69
2022/05/14 03:12:13;;;;;;;4.85;4.13;;;13.40;99.90;;;;;;5074907;28;20209;-70
2022/05/14 03:14:41;;;;;;;3.80;3.40;;;13.40;99.90;;;;;;5074882;28;20314;-70
2022/05/14 03:17:08;;;;;;;5.38;3.72;;;13.40;99.90;;;;;;5074266;28;20210;-70
2022/05/14 03:19:35;;;;;;;4.53;3.40;;;13.40;99.90;;;;;;5075088;28;20203;-70
2022/05/14 03:22:03;;;;;;;3.90;3.55;;;13.40;99.90;;;;;;5075192;28;20207;-70
2022/05/14 03:24:30;;;;;;;4.38;3.80;;;13.40;99.90;;;;;;5074971;28;20233;-70
2022/05/14 03:26:59;;;;;;;4.00;3.60;;;13.30;99.90;;;;;;5074957;28;20205;-70
2022/05/14 03:29:26;;;;;;;4.10;3.80;;;13.40;99.90;;;;;;5074652;28;20203;-69
2022/05/14 03:31:55;;;;;;;3.95;3.55;;;13.30;99.90;;;;;;5074812;28;20209;-70
2022/05/14 03:34:22;;;;;;;4.15;3.85;;;13.30;99.90;;;;;;5074269;28;20719;-70
2022/05/14 03:36:49;;;;;;;3.55;2.85;;;13.30;99.90;;;;;;5074402;28;20285;-69
2022/05/14 03:39:16;;;;;;;4.10;3.17;;;13.30;99.90;;;;;;5074620;28;20217;-69
2022/05/14 03:41:43;;;;;;;3.00;2.80;;;13.30;99.90;;;;;;5074592;28;20564;-69
2022/05/14 03:44:12;;;;;;;3.03;2.75;;;13.20;99.90;;;;;;5075010;28;20206;-70
2022/05/14 03:46:39;;;;;;;2.85;2.60;;;13.20;99.90;;;;;;5075030;28;20213;-70
2022/05/14 03:49:06;;;;;;;3.22;2.75;;;13.20;99.90;;;;;;5075088;28;20210;-70
2022/05/14 03:51:33;;;;;;;4.90;2.70;;;13.10;99.90;;;;;;5074827;28;20240;-70
2022/05/14 03:54:01;;;;;;;3.70;3.13;;;13.10;99.90;;;;;;5074642;28;20233;-70
2022/05/14 03:56:28;;;;;;;3.70;2.75;;;12.90;99.90;;;;;;5074757;28;20696;-70
2022/05/14 03:58:55;;;;;;;4.63;2.92;;;12.90;99.90;;;;;;5073914;28;20207;-69
2022/05/14 04:01:23;;;;;;;4.03;2.60;;;12.90;99.90;;;;;;5074219;28;20647;-69
2022/05/14 04:03:50;;;;;;;3.80;2.97;;;12.90;99.90;;;;;;5073766;28;20294;-69
2022/05/14 04:06:17;;;;;;;4.35;2.72;;;13.00;99.90;;;;;;5073818;28;20214;-69
2022/05/14 04:08:44;;;;;;;4.05;2.92;;;13.00;99.90;;;;;;5074142;28;20199;-69
2022/05/14 04:11:11;;;;;;;4.68;2.75;;;13.00;99.90;;;;;;5073919;28;20577;-69
2022/05/14 04:13:38;;;;;;;3.85;3.10;;;13.10;99.90;;;;;;5073555;28;20301;-70
2022/05/14 04:16:05;;;;;;;3.40;2.90;;;13.10;99.90;;;;;;5073591;28;20276;-69
2022/05/14 04:18:33;;;;;;;3.70;3.33;;;13.10;99.90;;;;;;5073919;28;20202;-69
2022/05/14 04:21:01;;;;;;;3.42;2.90;;;13.10;99.90;;;;;;5073656;28;20238;-69
2022/05/14 04:23:30;;;;;;;5.03;3.10;;;13.00;99.90;;;;;;5073565;28;20214;-69
2022/05/14 04:25:58;;;;;;;3.42;3.13;;;13.00;99.90;;;;;;5073769;28;20215;-69
2022/05/14 04:28:25;;;;;;;3.45;3.13;;;12.90;99.90;;;;;;5073556;28;20229;-69
2022/05/14 04:30:53;;;;;;;3.05;2.80;;;12.70;99.90;;;;;;5073815;28;20298;-69
2022/05/14 04:33:20;;;;;;;4.07;3.13;;;12.70;99.90;;;;;;5073638;28;20209;-69
2022/05/14 04:35:49;;;;;;;3.42;2.90;;;12.80;99.90;;;;;;5073626;28;20334;-69
2022/05/14 04:38:15;;;;;;;3.70;3.40;;;12.80;99.90;;;;;;5073755;28;20319;-70
2022/05/14 04:40:44;;;;;;;3.65;3.17;;;12.90;99.90;;;;;;5073658;28;20209;-70
2022/05/14 04:43:12;;;;;;;4.57;3.45;;;12.90;99.90;;;;;;5073331;28;20289;-69
2022/05/14 04:45:40;;;;;;;3.28;2.97;;;12.90;99.90;;;;;;5073582;28;20577;-70
2022/05/14 04:48:07;;;;;;;3.88;3.47;;;13.00;99.90;;;;;;5073587;28;20286;-70
2022/05/14 04:50:35;;;;;;;3.40;3.10;;;12.90;99.90;;;;;;5073561;28;20206;-70
2022/05/14 04:53:03;;;;;;;3.22;2.85;;;13.00;99.90;;;;;;5073308;28;20214;-70
2022/05/14 04:55:30;;;;;;;5.15;2.70;;;13.10;99.90;;;;;;5073196;28;20233;-69
2022/05/14 04:57:57;;;;;;;3.38;2.65;;;13.10;99.90;;;;;;5073484;28;20634;-70
2022/05/14 05:00:24;;;;;;;2.75;2.55;;;13.10;99.90;;;;;;5073392;28;20205;-69
2022/05/14 05:05:35;;;;;;;2.95;2.65;;;13.10;99.90;;;;;;5073289;28;20271;-70
2022/05/14 05:08:04;;;;;;;3.20;2.90;;;13.00;99.90;;;;;;5073369;28;20203;-70
2022/05/14 05:10:32;;;;;;;3.58;2.72;;;13.10;99.90;;;;;;5073382;28;20202;-70
2022/05/14 05:12:59;;;;;;;3.22;2.95;;;13.00;99.90;;;;;;5073229;28;20293;-69
2022/05/14 05:15:26;;;;;;;2.85;2.55;;;13.00;99.90;;;;;;5073143;28;20231;-69
2022/05/14 05:17:52;;;;;;;4.25;3.28;;;13.00;99.90;;;;;;5073263;28;20206;-69
2022/05/14 05:20:19;;;;;;;3.50;3.05;;;13.10;99.90;;;;;;5073259;28;20234;-70
2022/05/14 05:22:48;;;;;;;3.67;3.38;;;13.20;99.90;;;;;;5072976;28;20215;-70
2022/05/14 05:25:16;;;;;;;4.32;3.92;;;13.30;99.90;;;;;;5073170;28;20226;-69
2022/05/14 05:27:43;;;;;;;8.55;4.70;;;13.30;99.90;;;;;;5073190;28;20204;-69
2022/05/14 05:30:11;;;;;;;5.70;4.82;;;13.40;99.90;;;;;;5073191;28;20198;-69
2022/05/14 05:32:38;;;;;;;4.53;4.10;;;13.40;99.90;;;;;;5072866;28;20677;-69
2022/05/14 05:35:06;;;;;;;4.97;4.57;;;13.40;99.90;;;;;;5072922;28;20233;-70
2022/05/14 05:37:33;;;;;;;6.05;5.45;;;13.40;99.90;;;;;;5073147;28;20203;-70
2022/05/14 05:40:00;;;;;;;5.68;5.13;;;13.30;99.90;;;;;;5072854;28;20208;-70
2022/05/14 05:42:28;;;;;;;5.80;5.32;;;13.30;99.90;;;;;;5076591;28;20289;-70
2022/05/14 05:44:56;;;;;;;7.18;5.25;;;13.40;99.90;;;;;;5076770;28;20223;-70
2022/05/14 05:47:23;;;;;;;6.28;5.75;;;13.40;99.90;;;;;;5076551;28;20257;-70
2022/05/14 05:49:51;;;;;;;7.00;6.30;;;13.50;99.90;;;;;;5076638;28;20204;-70
2022/05/14 05:52:18;;;;;;;5.82;5.32;;;13.60;99.90;;;;;;5076497;28;20203;-69
2022/05/14 05:57:39;;;;;;;6.47;5.70;;;13.70;99.90;;;;;;5076473;28;20194;-70
2022/05/14 06:00:09;;;;;;;6.88;5.35;;;13.80;99.90;;;;;;5076395;28;20198;-70
2022/05/14 06:02:36;;;;;;;6.70;6.20;;;13.90;99.90;;;;;;5076134;28;20207;-70
2022/05/14 06:05:04;;;;;;;4.45;4.05;;;14.00;99.90;;;;;;5076356;28;20219;-70
2022/05/14 06:07:31;;;;;;;6.00;4.68;;;14.00;99.90;;;;;;5076398;28;20200;-70
2022/05/14 06:09:57;;;;;;;6.63;5.97;;;14.00;99.90;;;;;;5076343;28;20229;-70
2022/05/14 06:12:24;;;;;;;6.38;5.78;;;14.00;99.90;;;;;;5076030;28;20303;-70
2022/05/14 06:14:52;;;;;;;5.90;5.30;;;14.10;99.90;;;;;;5076136;28;20228;-70
2022/05/14 06:17:19;;;;;;;5.93;4.57;;;14.20;99.90;;;;;;5076545;28;20320;-70
2022/05/14 06:19:46;;;;;;;7.10;6.35;;;14.30;99.90;;;;;;5075963;28;20298;-70
2022/05/14 06:22:13;;;;;;;6.75;6.18;;;14.10;99.90;;;;;;5075963;28;20205;-70
2022/05/14 06:24:40;;;;;;;7.05;6.43;;;14.20;99.90;;;;;;5076024;28;20586;-70
2022/05/14 06:27:07;;;;;;;7.70;6.50;;;14.10;99.90;;;;;;5076022;28;20198;-70
2022/05/14 06:29:34;;;;;;;7.55;6.85;;;14.20;99.90;;;;;;5075996;28;20236;-70
2022/05/14 06:32:04;;;;;;;6.90;6.20;;;14.20;99.90;;;;;;5075916;28;20282;-70
2022/05/14 06:34:30;;;;;;;9.05;6.43;;;14.20;99.90;;;;;;5075821;28;20229;-70
2022/05/14 06:36:58;;;;;;;7.63;6.50;;;14.30;99.90;;;;;;5075838;28;20229;-70
2022/05/14 06:39:24;;;;;;;6.43;5.88;;;14.30;99.90;;;;;;5075847;28;20212;-70
2022/05/14 06:41:51;;;;;;;6.93;6.32;;;14.50;99.90;;;;;;5075682;28;20215;-70
2022/05/14 06:44:18;;;;;;;7.78;6.78;;;14.60;99.90;;;;;;5075468;28;20232;-70
2022/05/14 06:46:45;;;;;;;7.75;7.00;;;14.70;99.90;;;;;;5075716;28;20202;-70
2022/05/14 06:49:14;;;;;;;7.47;6.78;;;14.80;99.90;;;;;;5075656;28;20209;-70
2022/05/14 06:51:41;;;;;;;6.88;6.20;;;14.90;99.90;;;;;;5075425;28;20208;-70
2022/05/14 06:54:11;;;;;;;7.38;6.03;;;15.00;99.90;;;;;;5075167;28;20225;-70
2022/05/14 06:56:41;;;;;;;8.50;6.15;;;15.00;99.90;;;;;;5075347;28;20579;-70
2022/05/14 06:59:09;;;;;;;8.00;7.20;;;14.90;99.90;;;;;;5075488;28;20267;-70
2022/05/14 07:01:38;;;;;;;6.78;6.00;;;15.00;99.90;;;;;;5075371;28;20212;-70
2022/05/14 07:06:54;;;;;;;7.10;6.40;;;15.20;99.90;;;;;;5075127;28;20205;-70
2022/05/14 07:09:23;;;;;;;7.35;6.65;;;15.30;99.90;;;;;;5075192;28;20359;-70
2022/05/14 07:11:53;;;;;;;7.57;5.97;;;15.40;99.90;;;;;;5075163;28;20563;-70
2022/05/14 07:14:20;;;;;;;6.90;6.22;;;15.60;99.90;;;;;;5074838;28;20201;-70
2022/05/14 07:16:48;;;;;;;7.03;6.28;;;15.70;99.90;;;;;;5075079;28;20247;-70
2022/05/14 07:19:16;;;;;;;7.20;6.50;;;15.80;99.90;;;;;;5074948;28;20216;-70
2022/05/14 07:21:44;;;;;;;6.50;5.90;;;15.90;99.90;;;;;;5074977;28;20237;-70
2022/05/14 07:24:16;;;;;;;5.80;5.30;;;16.10;99.90;;;;;;5074808;28;20202;-70
2022/05/14 07:26:44;;;;;;;5.80;5.30;;;16.20;99.90;;;;;;5075066;28;20196;-70
2022/05/14 07:29:15;;;;;;;5.28;4.85;;;16.20;99.90;;;;;;5074852;28;20221;-69
2022/05/14 07:31:42;;;;;;;6.18;5.65;;;16.30;99.90;;;;;;5074778;28;20568;-70
2022/05/14 07:34:09;;;;;;;5.47;4.97;;;16.40;99.90;;;;;;5074384;28;20213;-69
2022/05/14 07:36:40;;;;;;;6.35;5.18;;;16.50;99.90;;;;;;5074627;28;20236;-70
2022/05/14 07:39:07;;;;;;;8.43;4.80;;;16.50;99.90;;;;;;5074542;28;20202;-70
2022/05/14 07:41:39;;;;;;;4.97;4.57;;;16.70;99.90;;;;;;5074999;28;20218;-70
2022/05/14 07:44:09;;;;;;;5.47;4.90;;;16.80;99.90;;;;;;5074204;28;20241;-70
2022/05/14 07:46:38;;;;;;;5.35;4.75;;;16.90;99.90;;;;;;5074853;28;20309;-69
2022/05/14 07:49:10;;;;;;;4.65;4.28;;;17.00;99.90;;;;;;5074244;28;20679;-70
2022/05/14 07:51:38;;;;;;;5.13;4.70;;;17.10;99.90;;;;;;5074420;28;20229;-69
2022/05/14 07:54:05;;;;;;;5.70;4.10;;;17.20;99.90;;;;;;5074036;28;20214;-69
2022/05/14 07:56:32;;;;;;;4.47;4.07;;;17.40;99.90;;;;;;5074153;28;20230;-69
2022/05/14 07:59:01;;;;;;;4.97;4.57;;;17.60;99.90;;;;;;5074154;28;20206;-69
2022/05/14 08:01:28;;;;;;;5.82;5.05;;;17.80;99.90;;;;;;5074158;28;20209;-70
2022/05/14 08:03:55;;;;;;;4.95;4.45;;;18.10;99.90;;;;;;5073370;28;20211;-69
2022/05/14 08:06:22;;;;;;;3.78;3.58;;;18.20;99.90;;;;;;5074121;28;20219;-69
2022/05/14 08:08:49;;;;;;;4.13;3.73;;;18.60;99.90;;;;;;5074217;28;20204;-69
2022/05/14 08:11:16;;;;;;;4.57;3.67;;;19.50;99.10;;;;;;5073957;28;21097;-70
2022/05/14 08:13:43;;;;;;;3.77;3.37;;;20.60;96.70;;;;;;5073653;28;20452;-69
2022/05/14 08:16:11;;;;;;;3.70;3.40;;;21.50;95.80;;;;;;5073895;28;20859;-70
2022/05/14 08:18:38;;;;;;;3.80;3.50;;;22.20;91.60;;;;;;5073904;28;20477;-70
2022/05/14 08:26:35;;;;;;;3.30;3.00;;;24.20;86.10;;;;;;5073615;28;20485;-70
2022/05/14 08:29:01;;;;;;;2.70;2.50;;;24.50;79.60;;;;;;5073648;28;20926;-70
2022/05/14 08:31:30;;;;;;;4.77;2.90;;;25.60;74.00;;;;;;5073765;28;20441;-70
2022/05/14 08:33:56;;;;;;;3.00;2.80;;;26.10;66.50;;;;;;5073627;28;20800;-70
2022/05/14 08:36:23;;;;;;;2.90;2.70;;;26.50;64.10;;;;;;5073507;28;20524;-70
2022/05/14 08:38:50;;;;;;;2.57;2.37;;;26.80;61.20;;;;;;5073378;28;20919;-70
2022/05/14 08:41:18;;;;;;;3.73;2.83;;;27.70;61.10;;;;;;5073666;28;20442;-70
2022/05/14 08:43:48;;;;;;;3.40;2.80;;;28.10;56.30;;;;;;5073328;28;20944;-68
2022/05/14 08:46:20;;;;;;;2.67;2.47;;;29.00;55.30;;;;;;5073615;28;20819;-69
2022/05/14 08:48:51;;;;;;;2.20;2.10;;;31.10;50.20;;;;;;5073512;28;20437;-69
2022/05/14 08:51:21;;;;;;;2.30;2.20;;;32.70;48.70;;;;;;5073637;28;20437;-69
2022/05/14 08:53:49;;;;;;;2.47;2.27;;;33.10;45.60;;;;;;5073504;28;20451;-69
2022/05/14 08:56:41;;;;;;;2.50;2.30;;;32.70;43.50;;;;;;5073557;28;20492;-68
2022/05/14 08:59:22;;;;;;;3.00;2.70;;;31.70;44.00;;;;;;5070168;28;20527;-68
2022/05/14 09:01:49;;;;;;;5.00;2.73;;;32.40;43.20;;;;;;5073508;28;20433;-68
2022/05/14 09:04:20;;;;;;;2.60;2.10;;;32.80;41.20;;;;;;5073279;28;20437;-68
2022/05/14 09:06:47;;;;;;;2.40;2.20;;;34.20;39.70;;;;;;5073504;28;20434;-68
2022/05/14 09:09:14;;;;;;;2.43;2.23;;;34.90;39.20;;;;;;5073289;28;20444;-68
2022/05/14 09:11:44;;;;;;;2.37;2.27;;;34.80;38.80;;;;;;5073326;28;20445;-69
2022/05/14 09:14:20;;;;;;;2.77;2.40;;;34.50;38.20;;;;;;5073188;28;20432;-69
2022/05/14 09:16:50;;;;;;;2.67;2.47;;;33.20;38.70;;;;;;5075991;28;20556;-68
2022/05/14 09:19:20;;;;;;;2.77;2.50;;;32.30;40.60;;;;;;5077361;28;20448;-68
2022/05/14 09:21:53;;;;;;;2.80;2.60;;;32.00;40.70;;;;;;5077223;28;20932;-68
2022/05/14 09:24:25;;;;;;;3.07;2.47;;;31.10;41.70;;;;;;5076922;28;20527;-69
2022/05/14 09:26:54;;;;;;;3.30;2.70;;;30.50;43.40;;;;;;5077290;28;20425;-70
2022/05/14 09:29:26;;;;;;;3.70;3.10;;;30.30;43.70;;;;;;5077172;28;20440;-70
2022/05/14 09:31:55;;;;;;;2.77;2.57;;;30.20;44.10;;;;;;5077132;28;20457;-70
2022/05/14 09:34:24;;;;;;;2.60;2.40;;;31.40;42.30;;;;;;5076801;28;20448;-70
2022/05/14 09:36:52;;;;;;;2.60;2.40;;;32.20;43.20;;;;;;5076856;28;20576;-70
2022/05/14 09:39:21;;;;;;;2.80;2.60;;;31.50;41.00;;;;;;5076977;28;20446;-70
2022/05/14 09:41:51;;;;;;;2.73;2.53;;;31.40;42.40;;;;;;5076666;28;20448;-70
2022/05/14 09:44:21;;;;;;;2.77;2.57;;;30.90;42.50;;;;;;5076500;28;20946;-71
2022/05/14 09:46:49;;;;;;;2.17;2.07;;;31.90;41.00;;;;;;5076897;28;20434;-70
2022/05/14 09:49:24;;;;;;;3.37;3.00;;;32.00;40.20;;;;;;5076682;28;20860;-70
2022/05/14 09:51:54;;;;;;;2.87;2.43;;;32.30;40.80;;;;;;5076742;28;20447;-70
2022/05/14 09:54:24;;;;;;;2.60;2.40;;;31.20;41.90;;;;;;5076269;28;20550;-70
2022/05/14 09:57:23;;;;;;;2.37;2.27;;;31.00;42.10;;;;;;5076584;28;20579;-70
2022/05/14 10:00:08;;;;;;;2.47;2.27;;;30.70;42.40;;;;;;5050983;28;20794;-68
2022/05/14 10:02:53;;;;;;;3.93;2.73;;;32.60;41.40;;;;;;5076114;28;20447;-70
2022/05/14 10:05:34;;;;;;;2.77;2.57;;;31.90;39.70;;;;;;5076323;28;20653;-70
2022/05/14 10:08:11;;;;;;;3.00;2.80;;;31.00;42.00;;;;;;5076419;28;20457;-70
2022/05/14 10:10:46;;;;;;;2.63;2.43;;;28.60;44.50;;;;;;5076434;28;20433;-70
2022/05/14 10:13:20;;;;;;;3.67;2.63;;;28.50;46.40;;;;;;5076197;28;20459;-70
2022/05/14 10:15:52;;;;;;;3.10;2.80;;;29.70;46.40;;;;;;5076664;28;21012;-70
2022/05/14 10:18:36;;;;;;;3.27;3.00;;;30.70;44.00;;;;;;5075953;28;20966;-70
2022/05/14 10:21:10;;;;;;;4.90;2.50;;;30.40;43.60;;;;;;5076191;28;20455;-69
2022/05/14 10:26:48;;;;;;;2.73;2.33;;;28.20;45.10;;;;;;5075331;28;20451;-70
2022/05/14 10:29:39;;;;;;;3.10;2.67;;;29.00;45.50;;;;;;5075842;28;20949;-70
2022/05/14 10:32:09;;;;;;;2.63;2.33;;;29.00;46.30;;;;;;5075703;28;20445;-70
2022/05/14 10:34:44;;;;;;;2.57;2.37;;;29.30;44.40;;;;;;5075845;28;20799;-70
2022/05/14 10:37:21;;;;;;;2.40;1.90;;;29.10;48.60;;;;;;5075836;28;20468;-70
2022/05/14 10:39:56;;;;;;;2.40;2.20;;;29.00;45.90;;;;;;5075859;28;20455;-70
2022/05/14 10:42:34;;;;;;;2.27;2.07;;;28.50;47.90;;;;;;5075419;28;20444;-70
2022/05/14 10:45:07;;;;;;;2.60;2.00;;;28.00;46.30;;;;;;5075683;28;20475;-69
2022/05/14 10:47:39;;;;;;;2.67;2.17;;;27.50;49.30;;;;;;5075395;28;20935;-70
2022/05/14 10:50:12;;;;;;;2.20;2.00;;;28.10;47.70;;;;;;5075695;28;20457;-70
2022/05/14 10:52:42;;;;;;;2.73;2.57;;;28.30;47.10;;;;;;5075429;28;20535;-69
2022/05/14 10:55:17;;;;;;;2.10;2.00;;;28.20;48.20;;;;;;5075186;28;20495;-70
2022/05/14 10:57:48;;;;;;;2.77;2.20;;;28.10;48.10;;;;;;5075215;28;20473;-69
2022/05/14 11:00:39;;;;;;;2.80;2.10;;;27.60;49.20;;;;;;5075452;28;20459;-70
2022/05/14 11:03:11;;;;;;;2.30;2.10;;;27.30;50.10;;;;;;5075197;28;20804;-69
2022/05/14 11:05:52;;;;;;;4.00;2.20;;;26.40;49.90;;;;;;5075066;28;20467;-69
2022/05/14 11:08:31;;;;;;;2.20;2.00;;;25.70;52.40;;;;;;5074944;28;20429;-69
2022/05/14 11:11:16;;;;;;;2.83;2.40;;;25.40;53.30;;;;;;5074927;28;20956;-69
2022/05/14 11:13:55;;;;;;;2.43;2.23;;;25.00;53.10;;;;;;5075012;28;20454;-69
2022/05/14 11:16:21;;;;;;;2.63;2.43;;;24.50;54.00;;;;;;5074841;28;20463;-69
2022/05/14 11:18:51;;;;;;;2.60;2.27;;;24.40;55.00;;;;;;5074829;28;20479;-69
2022/05/14 11:21:19;;;;;;;2.97;2.50;;;24.30;56.00;;;;;;5075066;28;20497;-69
2022/05/14 11:23:58;;;;;;;2.40;2.10;;;24.10;55.00;;;;;;5074671;28;20442;-69
2022/05/14 11:26:26;;;;;;;2.73;2.10;;;23.80;55.60;;;;;;5074922;28;20509;-69
2022/05/14 11:29:01;;;;;;;2.50;2.27;;;24.10;56.20;;;;;;5074836;28;20439;-69
2022/05/14 11:31:32;;;;;;;3.57;2.40;;;24.20;55.40;;;;;;5074742;28;20450;-69
2022/05/14 11:34:02;;;;;;;2.90;2.20;;;24.30;55.70;;;;;;5074650;28;20452;-69
2022/05/14 11:36:31;;;;;;;2.27;2.07;;;24.60;55.50;;;;;;5074406;28;20478;-69
2022/05/14 11:39:22;;;;;;;2.10;1.97;;;24.90;54.80;;;;;;5073768;28;20522;-69
2022/05/14 11:41:50;;;;;;;3.47;2.60;;;25.10;53.90;;;;;;5075002;28;20455;-69
2022/05/14 11:44:29;;;;;;;2.30;2.10;;;25.10;53.90;;;;;;5074399;28;20528;-69
2022/05/14 11:46:57;;;;;;;2.60;2.40;;;25.10;55.00;;;;;;5074599;28;20433;-69
2022/05/14 11:49:29;;;;;;;4.17;2.40;;;25.30;55.10;;;;;;5074181;28;20923;-69
2022/05/14 11:52:07;;;;;;;1.90;1.80;;;25.00;52.50;;;;;;5074160;28;20472;-69
2022/05/14 11:54:39;;;;;;;2.33;2.13;;;25.00;55.50;;;;;;5074062;28;20448;-69
2022/05/14 11:57:13;;;;;;;2.50;2.17;;;25.30;53.60;;;;;;5074307;28;20475;-69
2022/05/14 11:59:43;;;;;;;2.90;2.20;;;25.30;53.80;;;;;;5074305;28;20453;-69
2022/05/14 12:02:19;;;;;;;2.43;2.30;;;25.20;53.30;;;;;;5074568;28;20794;-70
2022/05/14 12:04:49;;;;;;;2.60;2.40;;;25.20;53.20;;;;;;5073983;28;20467;-70
2022/05/14 12:07:38;;;;;;;2.17;2.00;;;24.90;53.70;;;;;;5074167;28;20866;-69
2022/05/14 12:10:23;;;;;;;3.17;2.17;;;24.60;54.60;;;;;;5071697;28;20454;-69
2022/05/14 12:12:57;;;;;;;2.37;2.17;;;24.00;53.20;;;;;;5073773;28;20939;-69
2022/05/14 12:15:25;;;;;;;2.13;1.90;;;24.10;54.90;;;;;;5074189;28;20558;-69
2022/05/14 12:17:55;;;;;;;2.10;1.90;;;24.30;55.10;;;;;;5073679;28;20560;-69
2022/05/14 12:20:26;;;;;;;2.20;2.00;;;24.20;54.60;;;;;;5073922;28;20455;-69
2022/05/14 12:22:57;;;;;;;2.27;2.00;;;24.20;54.20;;;;;;5073596;28;20461;-69
2022/05/14 12:25:38;;;;;;;2.33;2.10;;;24.10;54.20;;;;;;5073754;28;20467;-69
2022/05/14 12:28:05;;;;;;;2.20;1.87;;;24.20;53.80;;;;;;5073930;28;20431;-69
2022/05/14 12:33:21;;;;;;;2.83;2.10;;;24.50;53.80;;;;;;5073495;28;20486;-69
2022/05/14 12:35:54;;;;;;;2.27;2.10;;;24.60;54.00;;;;;;5073559;28;20498;-69
2022/05/14 12:38:27;;;;;;;2.00;1.80;;;24.60;52.90;;;;;;5073400;28;20474;-69
2022/05/14 12:40:56;;;;;;;2.10;1.90;;;24.60;53.00;;;;;;5073750;28;20444;-69
2022/05/14 12:43:23;;;;;;;1.83;1.73;;;24.80;52.90;;;;;;5073600;28;20453;-69
2022/05/14 12:46:07;;;;;;;1.50;1.40;;;24.90;53.00;;;;;;5073388;28;20482;-69
2022/05/14 12:48:43;;;;;;;1.80;1.70;;;25.00;52.40;;;;;;5073639;28;20439;-69
2022/05/14 12:51:10;;;;;;;2.10;1.90;;;25.20;52.10;;;;;;5073427;28;20536;-69
2022/05/14 12:53:41;;;;;;;2.40;1.73;;;25.50;52.00;;;;;;5073186;28;20788;-70
2022/05/14 12:56:09;;;;;;;2.47;1.80;;;25.60;51.50;;;;;;5073461;28;20465;-69
2022/05/14 12:58:37;;;;;;;2.17;1.90;;;25.50;50.80;;;;;;5073390;28;20907;-69
2022/05/14 13:01:05;;;;;;;2.43;1.97;;;25.40;52.10;;;;;;5073383;28;20447;-69
2022/05/14 13:03:39;;;;;;;2.60;1.60;;;25.40;52.00;;;;;;5073030;28;20455;-69
2022/05/14 13:06:09;;;;;;;2.50;1.90;;;25.40;51.10;;;;;;5073456;28;20464;-69
2022/05/14 13:08:42;;;;;;;2.00;1.80;;;25.30;50.50;;;;;;5073387;28;20440;-70
2022/05/14 13:11:17;;;;;;;2.00;1.90;;;25.40;51.00;;;;;;5073323;28;20531;-70
2022/05/14 13:13:47;;;;;;;2.27;2.03;;;25.60;49.90;;;;;;5073077;28;20960;-70
2022/05/14 13:16:16;;;;;;;2.97;2.17;;;25.70;50.40;;;;;;5073436;28;20555;-69
2022/05/14 13:18:46;;;;;;;3.17;1.90;;;25.90;50.50;;;;;;5073104;28;20472;-69
2022/05/14 13:21:20;;;;;;;2.07;1.80;;;26.00;51.10;;;;;;5073541;28;20796;-69
2022/05/14 13:23:56;;;;;;;2.50;1.77;;;26.00;50.10;;;;;;5072907;28;20865;-70
2022/05/14 13:26:44;;;;;;;3.70;2.00;;;26.00;49.90;;;;;;5073241;28;20473;-69
2022/05/14 13:29:17;;;;;;;2.00;1.73;;;25.90;49.10;;;;;;5073092;28;20937;-69
2022/05/14 13:31:45;;;;;;;3.07;1.77;;;25.70;49.30;;;;;;5073032;28;20795;-69